Randolph, Utah
Current Conditions -  °F | °C
As of 9:53 AM on Saturday 22 Nov 2014 (Local Time) from KEVW Reporting Station
Overcast Overcast  
Wind Chill: 28°   Ceiling: 4000
Heat Index: 38°   Visibility: 10mi
Dew Point: 24°   Wind: 18mph
Humidity: 57%   Direction: 240°WSW
Pressure: 29.84"   Gusts: NA
Location:  41.67°N, 111.18°W
Report Text: KEVW 221653Z AUTO 24016KT 10SM OVC040 03/M04 A2984 RMK AO2 SLP093 T00331044
Loading
Personal Weather Stations






























Interactive Weather Map New forecast layout! Learn more

10-Day Weather Forecast

Advertisements
Track Severe Weather on mobile